Astoria, Illinois
Current Conditions -  °F | °C
As of 2:55 AM on Friday 24 Oct 2014 (Local Time) from KMQB Reporting Station
Overcast Overcast  
Wind Chill: 54°   Ceiling: 3400
Heat Index: 54°   Visibility: 10mi
Dew Point: 51°   Wind: 6mph
Humidity: 91%   Direction: 280°W
Pressure: 30.08"   Gusts: NA
Location:  40.23°N, 90.36°W
Report Text: KMQB 240755Z AUTO 28005KT 10SM OVC034 12/11 A3008 RMK AO2 T01200106
Loading
Personal Weather Stations






























Interactive Weather Map New forecast layout! Learn more

10-Day Weather Forecast

Advertisements
Track Severe Weather on mobile